Time;durP1;ratioP1;P1;durP2;ratioP2;P2;SDS_P1;SDS_P2;PMS_P1;PMS_P2;Temp;Humidity;BMP_temperature;BMP_pressure;BME280_temperature;BME280_humidity;BME280_pressure;Samples;Min_cycle;Max_cycle;Signal;HPM_P1;HPM_P2
2023/04/08 00:01:04;;;;;;;6.75;4.55;;;;;;;24.79;34.37;99806.16;4499406;31;33398;-60
2023/04/08 00:03:31;;;;;;;8.55;4.37;;;;;;;24.79;34.36;99806.97;4497846;31;33319;-61
2023/04/08 00:06:01;;;;;;;7.03;4.28;;;;;;;24.77;34.36;99806.38;4499276;31;33971;-61
2023/04/08 00:08:29;;;;;;;6.22;4.45;;;;;;;24.76;34.35;99809.34;4498001;31;33670;-61
2023/04/08 00:10:57;;;;;;;9.02;4.55;;;;;;;24.76;34.42;99806.59;4497944;31;33159;-61
2023/04/08 00:13:25;;;;;;;5.87;3.95;;;;;;;24.75;34.54;99799.50;4498004;31;34105;-60
2023/04/08 00:15:52;;;;;;;7.80;3.83;;;;;;;24.72;34.54;99805.44;4498092;31;34640;-60
2023/04/08 00:18:21;;;;;;;7.40;4.35;;;;;;;24.72;34.57;99810.91;4497965;31;34798;-60
2023/04/08 00:20:48;;;;;;;7.18;3.85;;;;;;;24.69;34.59;99804.81;4499158;31;33574;-60
2023/04/08 00:23:16;;;;;;;6.65;4.35;;;;;;;24.70;34.57;99811.09;4497766;31;32718;-60
2023/04/08 00:25:44;;;;;;;6.15;4.00;;;;;;;24.68;34.56;99808.63;4498984;31;34553;-60
2023/04/08 00:28:11;;;;;;;6.25;3.80;;;;;;;24.66;34.59;99816.19;4499025;31;33955;-61
2023/04/08 00:30:39;;;;;;;7.28;3.78;;;;;;;24.65;34.62;99810.97;4497634;31;34593;-60
2023/04/08 00:33:07;;;;;;;6.45;4.35;;;;;;;24.63;34.62;99811.22;4498951;31;34375;-60
2023/04/08 00:35:35;;;;;;;6.45;3.92;;;;;;;24.61;34.65;99802.44;4498977;31;33926;-61
2023/04/08 00:38:06;;;;;;;9.35;4.45;;;;;;;24.61;34.66;99804.34;4486251;31;33927;-61
2023/04/08 00:40:34;;;;;;;6.28;4.00;;;;;;;24.60;34.68;99799.94;4482041;32;34512;-61
2023/04/08 00:43:01;;;;;;;8.18;3.95;;;;;;;24.59;34.68;99803.75;4481898;32;33353;-60
2023/04/08 00:45:29;;;;;;;7.45;4.40;;;;;;;24.58;34.69;99804.81;4481550;32;33662;-60
2023/04/08 00:47:57;;;;;;;7.43;4.37;;;;;;;24.56;34.71;99810.50;4483061;32;34463;-60
2023/04/08 00:50:25;;;;;;;5.87;3.65;;;;;;;24.55;34.76;99808.00;4483369;32;34372;-60
2023/04/08 00:52:52;;;;;;;6.40;4.10;;;;;;;24.54;34.79;99812.63;4489755;31;34117;-61
2023/04/08 00:55:20;;;;;;;5.70;3.55;;;;;;;24.53;34.80;99815.56;4499696;31;34770;-61
2023/04/08 00:57:47;;;;;;;5.97;4.03;;;;;;;24.51;34.79;99810.34;4500910;31;33950;-60
2023/04/08 01:00:15;;;;;;;5.90;3.33;;;;;;;24.51;34.80;99813.09;4500732;31;33505;-60
2023/04/08 01:03:08;;;;;;;6.85;4.15;;;;;;;24.51;34.84;99810.34;4473776;31;32519;-60
2023/04/08 01:06:04;;;;;;;6.57;3.87;;;;;;;24.49;34.84;99815.22;4499524;31;34781;-60
2023/04/08 01:08:32;;;;;;;5.70;3.53;;;;;;;24.51;34.83;99810.34;4500736;31;34730;-61
2023/04/08 01:11:00;;;;;;;6.32;3.80;;;;;;;24.48;34.89;99812.72;4499552;31;33750;-60
2023/04/08 01:13:30;;;;;;;7.43;3.92;;;;;;;24.47;34.93;99811.06;4486923;31;33463;-60
2023/04/08 01:15:58;;;;;;;6.75;3.67;;;;;;;24.46;35.00;99812.13;4486613;31;33869;-61
2023/04/08 01:18:25;;;;;;;5.70;3.62;;;;;;;24.45;35.02;99814.03;4499574;31;33243;-59
2023/04/08 01:20:53;;;;;;;5.50;3.70;;;;;;;24.44;35.07;99817.81;4486530;31;33865;-60
2023/04/08 01:24:01;;;;;;;5.57;3.70;;;;;;;24.43;35.13;99814.28;4486394;31;32607;-60
2023/04/08 01:26:28;;;;;;;7.20;3.95;;;;;;;24.45;35.07;99814.03;4499173;31;33951;-61
2023/04/08 01:28:57;;;;;;;5.82;3.42;;;;;;;24.39;35.14;99812.25;4486563;31;33922;-60
2023/04/08 01:31:25;;;;;;;6.53;4.10;;;;;;;24.37;35.19;99814.34;4486608;31;34368;-60
2023/04/08 01:33:52;;;;;;;6.43;4.05;;;;;;;24.37;35.18;99806.19;4486519;31;33389;-59
2023/04/08 01:36:21;;;;;;;5.40;3.40;;;;;;;24.36;35.19;99807.22;4486507;31;34676;-61
2023/04/08 01:38:49;;;;;;;7.37;3.50;;;;;;;24.37;35.25;99815.19;4499352;31;34718;-60
2023/04/08 01:41:17;;;;;;;5.37;3.50;;;;;;;24.36;35.29;99812.66;4473345;31;33695;-60
2023/04/08 01:43:45;;;;;;;6.25;3.80;;;;;;;24.34;35.35;99812.91;4500567;31;34102;-60
2023/04/08 01:46:12;;;;;;;6.28;3.75;;;;;;;24.34;35.33;99810.19;4486372;31;32969;-60
2023/04/08 01:48:40;;;;;;;5.90;3.70;;;;;;;24.33;35.37;99807.66;4500547;31;34069;-60
2023/04/08 01:51:08;;;;;;;5.80;3.90;;;;;;;24.33;35.44;99819.41;4486282;31;33255;-60
2023/04/08 01:53:35;;;;;;;5.72;3.47;;;;;;;24.31;35.47;99805.19;4483569;32;33402;-60
2023/04/08 01:56:09;;;;;;;6.22;3.37;;;;;;;24.31;35.45;99804.34;4483313;32;33857;-59
2023/04/08 01:58:46;;;;;;;6.62;3.60;;;;;;;24.30;35.45;99805.44;4483880;32;33756;-60
2023/04/08 02:01:16;;;;;;;5.82;3.80;;;;;;;24.30;35.42;99805.44;4470330;32;33751;-60
2023/04/08 02:03:44;;;;;;;9.80;4.05;;;;;;;24.29;35.45;99807.28;4470536;32;32966;-60
2023/04/08 02:06:13;;;;;;;6.70;3.67;;;;;;;24.28;35.42;99802.91;4470683;32;33865;-60
2023/04/08 02:08:40;;;;;;;6.55;3.92;;;;;;;24.28;35.42;99808.34;4484387;32;33623;-60
2023/04/08 02:11:09;;;;;;;7.50;3.60;;;;;;;24.28;35.43;99804.81;4483400;32;33515;-59
2023/04/08 02:13:36;;;;;;;5.40;3.40;;;;;;;24.27;35.44;99809.44;4484855;32;34218;-61
2023/04/08 02:16:37;;;;;;;5.95;3.70;;;;;;;24.25;35.47;99807.97;4483174;32;34664;-60
2023/04/08 02:19:13;;;;;;;7.12;3.45;;;;;;;24.28;35.47;99807.53;4473036;32;33472;-61
2023/04/08 02:21:45;;;;;;;5.97;3.67;;;;;;;24.25;35.49;99810.72;4470907;32;34528;-60
2023/04/08 02:24:13;;;;;;;5.70;3.70;;;;;;;24.22;35.54;99806.56;4483251;32;34021;-60
2023/04/08 02:26:41;;;;;;;4.75;2.90;;;;;;;24.21;35.56;99799.47;4470236;32;33451;-61
2023/04/08 02:29:11;;;;;;;5.05;3.40;;;;;;;24.21;35.60;99809.53;4470408;32;34653;-61
2023/04/08 02:31:40;;;;;;;;;;;;;;;24.20;35.58;99808.69;4470741;32;34125;-60
2023/04/08 02:34:09;;;;;;;5.93;3.55;;;;;;;24.29;35.38;99801.84;4484554;32;33585;-60
2023/04/08 02:36:37;;;;;;;5.65;3.15;;;;;;;24.21;35.54;99804.91;4470261;32;34670;-61
2023/04/08 02:39:06;;;;;;;7.20;3.53;;;;;;;24.17;35.60;99804.53;4470595;32;34628;-60
2023/04/08 02:41:33;;;;;;;7.70;3.92;;;;;;;24.17;35.65;99806.44;4470335;32;33335;-61
2023/04/08 02:44:01;;;;;;;7.53;3.40;;;;;;;24.15;35.65;99801.22;4483193;32;33185;-60
2023/04/08 02:46:29;;;;;;;4.70;3.30;;;;;;;24.14;35.66;99799.53;4482937;32;34090;-60
2023/04/08 02:48:57;;;;;;;5.50;3.40;;;;;;;24.14;35.69;99798.72;4484729;32;34055;-60
2023/04/08 02:51:25;;;;;;;5.85;3.40;;;;;;;24.13;35.76;99797.88;4484250;32;34457;-61
2023/04/08 02:53:53;;;;;;;5.55;3.20;;;;;;;24.12;35.75;99801.69;4482925;31;33141;-60
2023/04/08 02:56:20;;;;;;;4.53;3.12;;;;;;;24.10;35.75;99803.78;4498851;31;33804;-60
2023/04/08 02:58:48;;;;;;;5.90;3.70;;;;;;;24.10;35.77;99798.34;4500160;31;33917;-60
2023/04/08 03:01:16;;;;;;;5.32;3.37;;;;;;;24.11;35.78;99807.38;4498733;31;34412;-60
2023/04/08 03:03:44;;;;;;;5.78;3.85;;;;;;;24.10;35.79;99808.41;4499930;31;33458;-61
2023/04/08 03:06:12;;;;;;;6.82;3.50;;;;;;;24.09;35.78;99807.59;4485710;31;33423;-60
2023/04/08 03:08:39;;;;;;;5.65;3.67;;;;;;;24.09;35.80;99806.75;4499826;31;34042;-60
2023/04/08 03:11:07;;;;;;;8.52;3.30;;;;;;;24.09;35.79;99813.03;4499885;31;33832;-60
2023/04/08 03:13:34;;;;;;;4.50;2.95;;;;;;;24.08;35.82;99805.94;4498069;31;33730;-60
2023/04/08 03:16:02;;;;;;;5.87;3.65;;;;;;;24.08;35.80;99813.28;4499781;31;34633;-60
2023/04/08 03:18:30;;;;;;;6.10;3.70;;;;;;;24.06;35.79;99802.59;4499896;31;33993;-59
2023/04/08 03:20:57;;;;;;;5.53;3.58;;;;;;;24.06;35.79;99805.34;4498693;31;33708;-61
2023/04/08 03:23:25;;;;;;;5.80;3.17;;;;;;;24.05;35.84;99808.28;4499710;31;33839;-60
2023/04/08 03:25:53;;;;;;;4.30;2.75;;;;;;;24.05;35.85;99811.00;4498595;31;33823;-60
2023/04/08 03:28:20;;;;;;;6.12;3.53;;;;;;;24.05;35.87;99811.81;4499915;31;34739;-60
2023/04/08 03:30:48;;;;;;;7.62;3.40;;;;;;;24.05;35.83;99813.72;4498252;31;33615;-60
2023/04/08 03:33:16;;;;;;;5.37;3.25;;;;;;;24.03;35.84;99813.13;4499860;31;33546;-60
2023/04/08 03:35:43;;;;;;;5.80;3.67;;;;;;;24.02;35.84;99815.03;4499687;31;34042;-60
2023/04/08 03:38:11;;;;;;;7.30;3.70;;;;;;;24.01;35.86;99810.63;4499727;31;34635;-61
2023/04/08 03:40:38;;;;;;;5.43;3.22;;;;;;;24.00;35.85;99813.59;4498541;31;34507;-60
2023/04/08 03:43:07;;;;;;;6.70;3.22;;;;;;;24.00;35.84;99819.03;4498395;31;33804;-60
2023/04/08 03:45:35;;;;;;;6.00;3.78;;;;;;;24.00;35.84;99828.03;4498053;31;32797;-60
2023/04/08 03:48:03;;;;;;;5.47;2.95;;;;;;;23.99;35.83;99823.66;4498359;31;33985;-60
2023/04/08 03:50:30;;;;;;;5.62;3.45;;;;;;;23.98;35.83;99827.44;4499588;31;34371;-60
2023/04/08 03:52:58;;;;;;;5.62;3.28;;;;;;;23.98;35.83;99826.63;4499643;31;33296;-60
2023/04/08 03:55:25;;;;;;;5.20;2.97;;;;;;;23.98;35.84;99832.06;4485238;31;33034;-60
2023/04/08 03:57:53;;;;;;;4.53;3.17;;;;;;;23.97;35.86;99833.97;4485363;31;33133;-60
2023/04/08 04:00:20;;;;;;;5.68;3.53;;;;;;;23.96;35.86;99840.47;4498028;31;33486;-60
2023/04/08 04:02:48;;;;;;;4.95;3.22;;;;;;;23.95;35.88;99836.06;4499327;31;33246;-60
2023/04/08 04:05:16;;;;;;;5.57;3.45;;;;;;;23.96;35.95;99836.91;4499340;31;33873;-60
2023/04/08 04:07:43;;;;;;;5.70;3.30;;;;;;;23.95;35.98;99840.69;4498028;31;33227;-60
2023/04/08 04:10:11;;;;;;;6.20;3.55;;;;;;;23.93;35.98;99839.03;4498185;31;33419;-60
2023/04/08 04:12:39;;;;;;;4.25;2.78;;;;;;;23.93;35.96;99846.38;4498006;31;33384;-59
2023/04/08 04:15:06;;;;;;;5.37;3.35;;;;;;;23.93;36.00;99851.84;4497961;31;33521;-60
2023/04/08 04:17:34;;;;;;;5.07;3.08;;;;;;;23.92;35.97;99851.00;4498007;31;34827;-60
2023/04/08 04:20:05;;;;;;;4.80;3.05;;;;;;;23.93;35.98;99857.28;4497846;31;33997;-60
2023/04/08 04:22:33;;;;;;;4.87;2.97;;;;;;;23.93;35.98;99851.84;4497995;31;34136;-60
2023/04/08 04:25:01;;;;;;;5.03;3.33;;;;;;;23.91;35.96;99849.31;4500182;31;33610;-60
2023/04/08 04:27:28;;;;;;;7.07;3.03;;;;;;;23.91;35.96;99853.94;4500987;31;34031;-61
2023/04/08 04:29:56;;;;;;;6.10;3.10;;;;;;;23.91;36.01;99862.13;4501251;31;33592;-60
2023/04/08 04:32:23;;;;;;;5.00;3.12;;;;;;;23.90;36.03;99860.47;4499839;31;32932;-60
2023/04/08 04:34:51;;;;;;;5.78;3.08;;;;;;;23.90;36.06;99855.84;4499678;31;33876;-60
2023/04/08 04:37:18;;;;;;;4.62;3.10;;;;;;;23.89;36.06;99859.62;4501069;31;33913;-59
2023/04/08 04:39:46;;;;;;;4.90;3.00;;;;;;;23.88;36.05;99855.25;4500990;31;33781;-60
2023/04/08 04:42:14;;;;;;;4.95;2.72;;;;;;;23.88;36.05;99865.31;4500857;31;33380;-60
2023/04/08 04:44:41;;;;;;;5.43;3.33;;;;;;;23.88;36.05;99857.97;4499729;31;33677;-60
2023/04/08 04:47:09;;;;;;;4.35;2.65;;;;;;;23.87;36.01;99859.00;4499684;31;33020;-60
2023/04/08 04:49:39;;;;;;;4.18;2.62;;;;;;;23.87;36.01;99859.00;4500871;31;33733;-60
2023/04/08 04:52:06;;;;;;;4.97;3.20;;;;;;;23.86;36.02;99856.53;4499794;31;34100;-60
2023/04/08 04:54:34;;;;;;;5.00;3.03;;;;;;;23.86;36.03;99862.78;4485206;32;33681;-60
2023/04/08 04:57:01;;;;;;;9.10;3.37;;;;;;;23.86;36.05;99862.78;4484945;32;34637;-60
2023/04/08 04:59:29;;;;;;;4.45;2.90;;;;;;;23.84;36.06;99862.22;4470983;32;33920;-60
2023/04/08 05:01:57;;;;;;;5.32;3.50;;;;;;;23.84;36.06;99869.56;4484694;32;33452;-60
2023/04/08 05:04:25;;;;;;;6.60;3.10;;;;;;;23.83;36.06;99873.34;4484982;32;33800;-62
2023/04/08 05:06:52;;;;;;;5.60;3.70;;;;;;;23.82;36.05;99866.22;4483803;32;34056;-60
2023/04/08 05:09:20;;;;;;;5.95;3.72;;;;;;;23.81;35.77;99862.66;4495831;31;34514;-60
2023/04/08 05:11:47;;;;;;;4.78;3.45;;;;;;;23.81;35.66;99870.81;4499465;31;32946;-60
2023/04/08 05:14:15;;;;;;;6.25;3.47;;;;;;;23.80;35.68;99861.00;4499510;31;33634;-60
2023/04/08 05:16:43;;;;;;;6.87;3.40;;;;;;;23.80;35.70;99871.06;4500796;31;34689;-59
2023/04/08 05:19:10;;;;;;;6.40;3.42;;;;;;;23.79;35.71;99872.13;4500670;31;33985;-61
2023/04/08 05:21:37;;;;;;;4.75;3.17;;;;;;;23.79;35.73;99874.84;4500677;31;33310;-60
2023/04/08 05:24:05;;;;;;;8.05;3.20;;;;;;;23.77;35.74;99872.34;4500636;31;33772;-60
2023/04/08 05:26:33;;;;;;;6.35;3.30;;;;;;;23.77;35.79;99876.97;4500315;31;34721;-59
2023/04/08 05:29:00;;;;;;;6.20;3.45;;;;;;;23.77;35.79;99883.22;4500727;31;33863;-60
2023/04/08 05:31:28;;;;;;;4.93;3.28;;;;;;;23.77;35.81;99885.97;4499558;31;33384;-60
2023/04/08 05:33:56;;;;;;;4.12;2.67;;;;;;;23.77;35.81;99891.41;4500333;31;34519;-60
2023/04/08 05:36:23;;;;;;;5.53;3.00;;;;;;;23.75;35.84;99893.53;4499022;31;34017;-60
2023/04/08 05:38:51;;;;;;;5.43;3.62;;;;;;;23.76;35.85;99889.75;4486325;31;33577;-60
2023/04/08 05:41:20;;;;;;;5.28;3.33;;;;;;;23.76;35.85;99895.19;4486300;31;33538;-60
2023/04/08 05:43:47;;;;;;;6.32;3.10;;;;;;;23.76;35.88;99895.19;4499401;31;34049;-60
2023/04/08 05:46:15;;;;;;;6.40;3.58;;;;;;;23.75;35.88;99901.72;4499217;31;34751;-60
2023/04/08 05:48:43;;;;;;;4.35;3.15;;;;;;;23.74;35.88;99904.66;4500388;31;33743;-60
2023/04/08 05:51:14;;;;;;;5.20;3.25;;;;;;;23.74;35.91;99897.34;4500554;31;33418;-60
2023/04/08 05:53:42;;;;;;;6.30;3.12;;;;;;;23.74;35.92;99910.13;4487840;31;33939;-60
2023/04/08 05:56:09;;;;;;;5.18;3.08;;;;;;;23.73;35.94;99909.25;4470742;32;33951;-60
2023/04/08 05:58:36;;;;;;;6.05;3.45;;;;;;;23.72;35.95;99904.88;4484632;32;33731;-60
2023/04/08 06:01:06;;;;;;;6.43;3.20;;;;;;;23.72;35.97;99906.78;4489315;31;33318;-60
2023/04/08 06:03:33;;;;;;;5.03;3.30;;;;;;;23.73;35.98;99911.16;4498919;31;33418;-60
2023/04/08 06:06:01;;;;;;;5.45;3.40;;;;;;;23.73;35.99;99909.25;4499277;31;33581;-60
2023/04/08 06:08:30;;;;;;;7.80;3.30;;;;;;;23.72;36.04;99909.50;4499175;31;33306;-60
2023/04/08 06:10:58;;;;;;;4.80;3.10;;;;;;;23.72;36.06;99917.66;4498686;31;33235;-61
2023/04/08 06:13:26;;;;;;;4.40;2.90;;;;;;;23.72;36.04;99914.94;4500108;31;33614;-61
2023/04/08 06:15:53;;;;;;;5.75;2.90;;;;;;;23.72;36.07;99912.22;4500274;31;34798;-61
2023/04/08 06:18:21;;;;;;;4.62;3.00;;;;;;;23.70;36.09;99917.06;4500647;31;33868;-60
2023/04/08 06:20:49;;;;;;;5.32;3.28;;;;;;;23.70;36.10;99911.63;4500433;31;34055;-60
2023/04/08 06:23:16;;;;;;;4.55;3.03;;;;;;;23.70;36.09;99917.06;4485923;31;32662;-60
2023/04/08 06:25:44;;;;;;;5.00;2.90;;;;;;;23.69;36.09;99918.97;4500225;31;34956;-61
2023/04/08 06:28:12;;;;;;;7.00;3.15;;;;;;;23.68;36.12;99918.09;4500116;31;33840;-61
2023/04/08 06:30:39;;;;;;;3.92;2.85;;;;;;;23.68;36.13;99926.28;4485826;31;32405;-61
2023/04/08 06:33:07;;;;;;;4.82;3.00;;;;;;;23.68;36.11;99928.19;4486065;31;33762;-60
2023/04/08 06:35:36;;;;;;;7.95;2.92;;;;;;;23.67;36.11;99930.06;4500197;31;33725;-61
2023/04/08 06:38:04;;;;;;;4.75;3.00;;;;;;;23.67;36.09;99931.97;4498913;31;32659;-60
2023/04/08 06:40:31;;;;;;;5.32;3.35;;;;;;;23.68;36.00;99928.19;4496602;31;32819;-60
2023/04/08 06:42:59;;;;;;;4.57;2.87;;;;;;;23.66;35.91;99927.59;4499526;31;33912;-60
2023/04/08 06:45:27;;;;;;;8.70;3.40;;;;;;;23.67;35.82;99927.34;4499864;31;34762;-60
2023/04/08 06:47:55;;;;;;;5.00;3.10;;;;;;;23.65;35.79;99928.66;4498654;31;34547;-59
2023/04/08 06:50:23;;;;;;;6.93;3.00;;;;;;;23.66;35.76;99933.03;4498526;31;33389;-60
2023/04/08 06:52:50;;;;;;;5.15;3.08;;;;;;;23.66;35.72;99939.31;4499407;31;34666;-60
2023/04/08 06:55:18;;;;;;;4.93;2.78;;;;;;;23.66;35.76;99936.59;4485260;31;33318;-60
2023/04/08 06:57:46;;;;;;;5.10;3.05;;;;;;;23.65;35.79;99942.28;4498391;31;33017;-60
2023/04/08 07:00:13;;;;;;;4.45;2.97;;;;;;;23.65;35.81;99943.09;4497973;31;32560;-60
2023/04/08 07:02:41;;;;;;;5.53;3.22;;;;;;;23.65;35.82;99943.09;4499498;31;34762;-59
2023/04/08 07:05:09;;;;;;;5.18;3.10;;;;;;;23.65;35.84;99950.44;4499585;31;33470;-60
2023/04/08 07:07:36;;;;;;;4.72;2.97;;;;;;;23.65;35.83;99947.72;4499343;31;33832;-60
2023/04/08 07:10:05;;;;;;;5.82;2.92;;;;;;;23.65;35.82;99945.81;4499693;31;34006;-60
2023/04/08 07:12:35;;;;;;;4.68;2.80;;;;;;;23.64;35.83;99944.16;4499609;31;34509;-60
2023/04/08 07:15:02;;;;;;;5.12;3.00;;;;;;;23.64;35.84;99949.63;4499239;31;34781;-61
2023/04/08 07:17:31;;;;;;;4.80;2.80;;;;;;;23.64;35.85;99949.63;4498063;31;34326;-60
2023/04/08 07:19:58;;;;;;;5.15;2.92;;;;;;;23.64;35.88;99954.19;4499547;31;32941;-60
2023/04/08 07:22:26;;;;;;;5.07;3.17;;;;;;;23.63;35.90;99958.78;4499250;31;33485;-60
2023/04/08 07:24:54;;;;;;;5.37;2.90;;;;;;;23.64;35.92;99962.37;4499216;31;33931;-60
2023/04/08 07:27:21;;;;;;;4.57;2.95;;;;;;;23.63;35.94;99961.50;4498099;31;33132;-60
2023/04/08 07:29:53;;;;;;;4.45;2.75;;;;;;;23.63;35.94;99956.06;4497994;31;34027;-60
2023/04/08 07:32:20;;;;;;;4.18;2.55;;;;;;;23.61;35.97;99966.34;4499369;31;33817;-59
2023/04/08 07:34:48;;;;;;;4.85;3.00;;;;;;;23.63;35.96;99971.56;4484938;31;34720;-60
2023/04/08 07:37:17;;;;;;;4.90;3.15;;;;;;;23.63;35.94;99971.56;4499244;31;33489;-60
2023/04/08 07:39:45;;;;;;;4.32;2.80;;;;;;;23.61;35.95;99976.44;4498070;31;33116;-60
2023/04/08 07:42:12;;;;;;;3.87;2.72;;;;;;;23.60;35.98;99981.03;4498072;31;33976;-60
2023/04/08 07:44:40;;;;;;;4.93;3.30;;;;;;;23.60;36.00;99981.03;4497916;31;33893;-59
2023/04/08 07:47:08;;;;;;;4.85;3.08;;;;;;;23.60;36.02;99983.78;4497693;31;33752;-59
2023/04/08 07:49:35;;;;;;;4.80;3.15;;;;;;;23.59;36.01;99984.81;4497799;31;33041;-60
2023/04/08 07:52:05;;;;;;;5.65;2.75;;;;;;;23.60;36.02;99994.66;4497865;31;34573;-60
2023/04/08 07:54:35;;;;;;;4.87;3.10;;;;;;;23.60;36.03;99996.56;4485081;31;35203;-60
2023/04/08 07:57:03;;;;;;;5.07;2.78;;;;;;;23.60;36.03;99993.84;4485465;31;34216;-59
2023/04/08 07:59:31;;;;;;;5.62;3.00;;;;;;;23.59;36.04;99992.97;4497838;31;32284;-60
2023/04/08 08:01:58;;;;;;;4.05;2.83;;;;;;;23.58;36.07;99996.75;4499221;31;34579;-60
2023/04/08 08:04:26;;;;;;;5.28;3.40;;;;;;;23.58;36.07;99993.22;4499177;31;34030;-60
2023/04/08 08:06:54;;;;;;;6.15;2.90;;;;;;;23.58;36.04;99985.03;4499333;31;34621;-59
2023/04/08 08:09:22;;;;;;;5.72;3.12;;;;;;;23.59;35.96;99981.25;4499656;31;33397;-59
2023/04/08 08:11:50;;;;;;;8.15;3.30;;;;;;;23.58;35.93;99985.03;4499148;31;33652;-59
2023/04/08 08:14:17;;;;;;;5.22;2.80;;;;;;;23.57;35.88;99986.09;4499321;31;33622;-59
2023/04/08 08:16:44;;;;;;;4.20;2.72;;;;;;;23.57;35.84;99981.47;4499369;31;33916;-59
2023/04/08 08:19:13;;;;;;;7.60;3.30;;;;;;;23.56;35.80;99982.53;4497789;31;33985;-60
2023/04/08 08:21:40;;;;;;;6.62;3.17;;;;;;;23.56;35.77;99987.16;4498588;31;33811;-60
2023/04/08 08:24:08;;;;;;;7.05;3.47;;;;;;;23.55;35.74;99988.19;4499069;31;34700;-59
2023/04/08 08:26:36;;;;;;;5.95;3.05;;;;;;;23.55;35.66;99997.22;4498860;31;33404;-59
2023/04/08 08:29:04;;;;;;;7.70;3.05;;;;;;;23.54;35.63;100002.87;4497839;31;33363;-59
2023/04/08 08:31:31;;;;;;;6.07;3.20;;;;;;;23.53;35.58;100004.75;4498947;31;34100;-59
2023/04/08 08:33:59;;;;;;;5.22;3.10;;;;;;;23.53;35.55;100012.94;4498924;31;33882;-59
2023/04/08 08:36:27;;;;;;;5.47;2.90;;;;;;;23.53;35.50;100023.00;4484770;31;34592;-60
2023/04/08 08:38:55;;;;;;;4.60;3.00;;;;;;;23.52;35.46;100014.00;4497636;31;33981;-60
2023/04/08 08:41:23;;;;;;;5.47;2.70;;;;;;;23.52;35.41;100022.16;4497404;31;33655;-66
2023/04/08 08:43:50;;;;;;;8.13;6.35;;;;;;;23.52;35.33;100024.06;4497325;31;34718;-60
2023/04/08 08:46:18;;;;;;;8.38;6.22;;;;;;;23.41;32.84;100025.62;4484490;31;34584;-60
2023/04/08 08:48:46;;;;;;;7.43;3.97;;;;;;;23.37;33.04;100027.94;4497202;31;33018;-60
2023/04/08 08:51:14;;;;;;;8.55;4.10;;;;;;;23.39;34.07;100022.28;4497392;31;33438;-60
2023/04/08 08:53:45;;;;;;;7.68;3.20;;;;;;;23.41;34.50;100023.72;4481561;32;34015;-60
2023/04/08 08:56:12;;;;;;;10.63;3.35;;;;;;;23.49;34.70;100028.06;4456098;32;33907;-61
2023/04/08 08:58:46;;;;;;;5.97;2.92;;;;;;;23.54;34.87;100033.66;4481453;32;33558;-60
2023/04/08 09:01:33;;;;;;;4.75;3.03;;;;;;;23.60;35.02;100031.97;4481155;32;33504;-60
2023/04/08 09:04:18;;;;;;;4.62;2.75;;;;;;;23.72;35.00;100029.38;4497343;31;33969;-60
2023/04/08 09:07:07;;;;;;;7.40;3.10;;;;;;;23.83;35.09;100034.94;4481579;32;33756;-60
2023/04/08 09:09:49;;;;;;;9.65;3.17;;;;;;;23.96;35.04;100035.84;4481296;32;33125;-61
2023/04/08 09:12:17;;;;;;;9.35;2.87;;;;;;;24.06;35.03;100039.75;4470765;31;33077;-60
2023/04/08 09:14:45;;;;;;;5.87;2.75;;;;;;;24.14;35.00;100044.06;4500599;31;33884;-60
2023/04/08 09:17:12;;;;;;;6.93;3.33;;;;;;;24.23;35.08;100042.72;4499425;31;33522;-60
2023/04/08 09:20:13;;;;;;;9.25;3.33;;;;;;;24.32;35.11;100043.25;4486472;31;33416;-60
2023/04/08 09:23:00;;;;;;;6.90;3.20;;;;;;;24.47;34.96;100040.19;4500649;31;33574;-60
2023/04/08 09:25:32;;;;;;;5.53;2.87;;;;;;;24.58;34.94;100045.72;4473229;31;33708;-61
2023/04/08 09:28:00;;;;;;;4.75;2.60;;;;;;;24.65;34.84;100049.19;4477784;31;34574;-61
2023/04/08 09:30:29;;;;;;;4.17;2.30;;;;;;;24.73;34.75;100048.03;4470902;32;33411;-60
2023/04/08 09:32:56;;;;;;;11.90;3.42;;;;;;;24.82;34.68;100043.13;4469794;32;33849;-60
2023/04/08 09:35:24;;;;;;;6.03;2.83;;;;;;;24.87;34.54;100052.28;4468614;32;33669;-60
2023/04/08 09:37:52;;;;;;;7.62;2.97;;;;;;;24.90;34.49;100054.56;4481510;32;34392;-60
2023/04/08 09:40:20;;;;;;;6.07;2.87;;;;;;;24.93;34.43;100051.34;4482777;32;32983;-60
2023/04/08 09:42:50;;;;;;;4.80;2.42;;;;;;;24.98;34.37;100056.09;4481531;32;33504;-60
2023/04/08 09:45:20;;;;;;;4.43;2.47;;;;;;;24.99;34.31;100057.78;4469088;32;33551;-60
2023/04/08 09:48:00;;;;;;;7.20;2.80;;;;;;;25.01;34.24;100052.94;4469039;32;34141;-60
2023/04/08 09:50:30;;;;;;;;;;;;;;;25.04;34.19;100057.06;4486240;31;33333;-60
2023/04/08 09:53:14;;;;;;;6.90;2.87;;;;;;;25.12;34.05;100056.78;4481266;32;33551;-60
2023/04/08 09:55:42;;;;;;;6.32;2.83;;;;;;;25.06;34.14;100057.69;4481270;31;34593;-60
2023/04/08 09:58:33;;;;;;;6.60;2.92;;;;;;;25.03;34.18;100056.25;4469465;32;33838;-61
2023/04/08 10:01:01;;;;;;;5.07;2.80;;;;;;;25.03;34.18;100060.87;4484465;32;33316;-60
2023/04/08 10:03:32;;;;;;;6.18;2.70;;;;;;;25.01;34.19;100057.56;4477053;31;33695;-60
2023/04/08 10:06:00;;;;;;;5.45;3.22;;;;;;;25.00;34.22;100055.91;4488880;31;32889;-62
2023/04/08 10:08:28;;;;;;;7.43;3.12;;;;;;;24.99;34.26;100062.41;4480586;31;33707;-63
2023/04/08 10:10:56;;;;;;;7.07;3.12;;;;;;;24.99;34.31;100067.84;4461897;31;33695;-62
2023/04/08 10:13:23;;;;;;;5.97;2.80;;;;;;;24.99;34.34;100071.41;4470342;31;34575;-61
2023/04/08 10:15:53;;;;;;;6.65;2.97;;;;;;;24.96;34.37;100071.91;4475803;31;34514;-61
2023/04/08 10:18:21;;;;;;;6.68;2.75;;;;;;;24.94;34.36;100069.38;4489333;31;33748;-62
2023/04/08 10:20:48;;;;;;;6.12;2.60;;;;;;;24.91;34.37;100067.13;4494694;31;33083;-62
2023/04/08 10:23:16;;;;;;;7.60;2.92;;;;;;;24.90;34.39;100070.06;4484335;32;34421;-63
2023/04/08 10:25:46;;;;;;;9.02;3.10;;;;;;;24.89;34.38;100069.25;4486615;31;34001;-62
2023/04/08 10:28:15;;;;;;;6.65;3.10;;;;;;;24.87;34.39;100068.66;4469872;32;33913;-62
2023/04/08 10:30:45;;;;;;;6.10;2.50;;;;;;;24.86;34.38;100068.88;4484458;32;33425;-62
2023/04/08 10:33:16;;;;;;;5.35;2.97;;;;;;;24.83;34.40;100070.16;4494505;31;33994;-60
2023/04/08 10:35:47;;;;;;;9.18;3.00;;;;;;;24.81;34.39;100077.75;4488096;31;34496;-61
2023/04/08 10:38:15;;;;;;;8.73;2.72;;;;;;;24.80;34.43;100076.06;4477701;32;33859;-62
2023/04/08 10:40:43;;;;;;;7.53;3.15;;;;;;;24.78;34.44;100069.19;4483185;32;33836;-61
2023/04/08 10:43:11;;;;;;;9.10;3.22;;;;;;;24.76;34.52;100076.75;4473126;31;33229;-61
2023/04/08 10:45:39;;;;;;;8.77;3.15;;;;;;;24.74;34.58;100067.97;4481240;31;33574;-62
2023/04/08 10:48:17;;;;;;;5.60;2.83;;;;;;;24.72;34.63;100070.13;4472677;31;32760;-62
2023/04/08 10:50:53;;;;;;;9.43;3.33;;;;;;;24.71;34.66;100071.16;4491183;31;33060;-61
2023/04/08 10:53:30;;;;;;;10.00;3.42;;;;;;;24.69;34.72;100074.13;4469981;32;33826;-62
2023/04/08 10:56:08;;;;;;;5.12;2.95;;;;;;;24.67;34.74;100065.34;4488292;31;34699;-62
2023/04/08 10:58:35;;;;;;;5.28;2.92;;;;;;;24.65;34.77;100068.28;4482244;32;33354;-61
2023/04/08 11:01:07;;;;;;;7.45;3.33;;;;;;;24.63;34.79;100075.88;4482842;32;33261;-62
2023/04/08 11:03:35;;;;;;;6.22;2.92;;;;;;;24.61;34.81;100074.41;4482387;31;34629;-61
2023/04/08 11:06:04;;;;;;;7.32;2.85;;;;;;;24.59;34.80;100074.66;4490568;31;33506;-61
2023/04/08 11:08:32;;;;;;;5.53;2.78;;;;;;;24.60;34.80;100075.50;4494339;31;34511;-61
2023/04/08 11:11:04;;;;;;;6.03;3.08;;;;;;;24.58;34.81;100081.19;4482086;31;32382;-62
2023/04/08 11:13:31;;;;;;;11.65;3.45;;;;;;;24.57;34.82;100079.50;4483362;31;33561;-61
2023/04/08 11:15:59;;;;;;;6.28;2.67;;;;;;;24.56;34.82;100075.09;4482682;32;33984;-61
2023/04/08 11:18:27;;;;;;;5.35;3.25;;;;;;;24.56;34.82;100069.66;4485210;31;33275;-62
2023/04/08 11:20:55;;;;;;;8.93;3.08;;;;;;;24.54;34.83;100076.41;4483796;31;33488;-62
2023/04/08 11:23:26;;;;;;;5.70;3.12;;;;;;;24.53;34.82;100078.31;4470210;32;33996;-62
2023/04/08 11:25:53;;;;;;;5.53;3.10;;;;;;;24.52;34.80;100084.81;4482303;31;33661;-63
2023/04/08 11:28:22;;;;;;;7.12;2.87;;;;;;;24.52;34.87;100078.50;4469996;32;34280;-62
2023/04/08 11:30:49;;;;;;;5.95;3.15;;;;;;;24.51;34.86;100077.69;4468686;32;34130;-61
2023/04/08 11:33:17;;;;;;;6.37;3.22;;;;;;;24.51;34.89;100082.31;4483218;31;33490;-62
2023/04/08 11:35:45;;;;;;;7.12;2.45;;;;;;;24.49;34.89;100077.09;4495091;31;33924;-61
2023/04/08 11:38:12;;;;;;;6.10;3.15;;;;;;;24.49;34.89;100085.28;4494159;31;33854;-62
2023/04/08 11:40:40;;;;;;;6.03;2.75;;;;;;;24.49;34.88;100088.00;4488582;31;32790;-62